Time;durP1;ratioP1;P1;durP2;ratioP2;P2;SDS_P1;SDS_P2;PMS_P1;PMS_P2;Temp;Humidity;BMP_temperature;BMP_pressure;BME280_temperature;BME280_humidity;BME280_pressure;Samples;Min_cycle;Max_cycle;Signal;HPM_P1;HPM_P2
2021/04/01 00:00:48;;;;;;;26.01;17.74;;;;;;;12.01;71.53;99639.70;343128;117;1962066;-72
2021/04/01 00:01:54;;;;;;;26.40;18.56;;;;;;;12.02;71.46;99633.26;314461;117;2548975;-72
2021/04/01 00:03:00;;;;;;;25.82;19.13;;;;;;;12.01;71.56;99634.28;336173;115;1961971;-73
2021/04/01 00:04:05;;;;;;;24.52;18.22;;;;;;;12.03;71.45;99633.02;344329;117;1964996;-73
2021/04/01 00:05:11;;;;;;;24.14;18.51;;;;;;;12.04;71.36;99629.29;345302;117;1963908;-73
2021/04/01 00:06:18;;;;;;;28.27;18.81;;;;;;;12.06;71.15;99629.88;344149;117;1961994;-74
2021/04/01 00:07:23;;;;;;;27.96;18.50;;;;;;;12.07;71.06;99628.03;343398;117;1962092;-72
2021/04/01 00:08:28;;;;;;;26.59;18.45;;;;;;;12.06;70.97;99627.17;338995;119;1961980;-72
2021/04/01 00:09:33;;;;;;;24.14;17.79;;;;;;;12.04;71.02;99614.90;340085;119;1961898;-72
2021/04/01 00:10:45;;;;;;;26.36;18.56;;;;;;;12.01;70.96;99613.48;335467;117;2867040;-72
2021/04/01 00:11:50;;;;;;;26.82;17.57;;;;;;;11.99;71.19;99617.45;346297;116;1962928;-72
2021/04/01 00:12:56;;;;;;;28.33;18.48;;;;;;;11.95;71.24;99616.21;344717;116;1963019;-72
2021/04/01 00:14:04;;;;;;;26.27;18.83;;;;;;;11.92;71.33;99611.23;321972;116;2505962;-73
2021/04/01 00:15:13;;;;;;;29.26;18.32;;;;;;;11.93;71.30;99604.77;350524;115;1961944;-72
2021/04/01 00:16:19;;;;;;;27.97;19.36;;;;;;;11.90;71.32;99607.91;347763;116;1963947;-72
2021/04/01 00:17:26;;;;;;;24.32;17.53;;;;;;;11.89;71.41;99607.08;344063;117;1962999;-71
2021/04/01 00:18:31;;;;;;;25.09;17.50;;;;;;;11.85;71.29;99603.95;341953;117;1963989;-72
2021/04/01 00:19:38;;;;;;;23.84;17.68;;;;;;;11.86;71.51;99599.39;312134;117;2883990;-73
2021/04/01 00:20:45;;;;;;;26.66;18.22;;;;;;;11.83;71.62;99600.62;344410;117;1961990;-72
2021/04/01 00:21:50;;;;;;;24.34;17.76;;;;;;;11.79;71.60;99593.14;343277;117;1964069;-72
2021/04/01 00:22:55;;;;;;;25.10;17.12;;;;;;;11.74;71.73;99599.20;345191;115;1963983;-72
2021/04/01 00:24:01;;;;;;;24.94;17.97;;;;;;;11.77;71.81;99600.64;343990;117;1962029;-72
2021/04/01 00:25:09;;;;;;;27.61;17.83;;;;;;;11.74;71.83;99592.95;344519;115;1965009;-73
2021/04/01 00:26:15;;;;;;;23.79;17.12;;;;;;;11.73;71.88;99605.66;344263;116;1961994;-72
2021/04/01 00:27:20;;;;;;;23.98;17.56;;;;;;;11.69;71.84;99600.89;343903;115;1963928;-73
2021/04/01 00:28:25;;;;;;;25.61;16.95;;;;;;;11.66;72.08;99599.44;344406;117;1961942;-72
2021/04/01 00:29:31;;;;;;;25.27;15.99;;;;;;;11.68;72.05;99597.36;344321;116;1963026;-73
2021/04/01 00:30:37;;;;;;;23.54;17.28;;;;;;;11.69;72.13;99593.59;347511;115;1963020;-72
2021/04/01 00:31:42;;;;;;;23.25;16.96;;;;;;;11.72;72.12;99601.28;343643;117;1963042;-72
2021/04/01 00:32:48;;;;;;;24.41;16.70;;;;;;;11.72;72.02;99597.75;343154;117;1963905;-73
2021/04/01 00:33:53;;;;;;;23.58;17.23;;;;;;;11.74;71.93;99595.66;344000;115;1962128;-71
2021/04/01 00:34:58;;;;;;;24.53;17.30;;;;;;;11.76;71.87;99598.99;344035;117;1961950;-72
2021/04/01 00:36:04;;;;;;;25.41;17.52;;;;;;;11.77;71.81;99593.34;343716;117;1964008;-72
2021/04/01 00:37:10;;;;;;;26.29;18.55;;;;;;;11.79;71.78;99593.97;346385;115;1961923;-72
2021/04/01 00:38:15;;;;;;;26.08;17.59;;;;;;;11.81;71.71;99591.88;345025;117;1962032;-72
2021/04/01 00:39:20;;;;;;;24.18;17.21;;;;;;;11.85;71.49;99587.72;335416;115;2954060;-72
2021/04/01 00:40:27;;;;;;;24.74;16.53;;;;;;;11.86;71.47;99583.16;343473;117;1962006;-72
2021/04/01 00:41:32;;;;;;;25.51;16.71;;;;;;;11.87;71.39;99582.92;343009;117;1963972;-72
2021/04/01 00:42:38;;;;;;;25.97;17.65;;;;;;;11.94;71.13;99582.08;346878;114;1962041;-72
2021/04/01 00:43:43;;;;;;;22.69;16.67;;;;;;;11.91;71.20;99579.78;347023;114;1961971;-72
2021/04/01 00:44:48;;;;;;;23.65;16.26;;;;;;;11.88;71.32;99578.34;347135;114;1962006;-72
2021/04/01 00:45:53;;;;;;;25.01;18.47;;;;;;;11.89;71.36;99577.30;342765;116;1961988;-72
2021/04/01 00:46:59;;;;;;;23.21;16.81;;;;;;;11.91;71.27;99577.07;341201;116;1961937;-72
2021/04/01 00:48:04;;;;;;;23.48;16.31;;;;;;;11.92;71.24;99568.75;347413;114;1962029;-71
2021/04/01 00:49:09;;;;;;;27.30;18.53;;;;;;;11.97;71.07;99566.22;347117;114;1961952;-73
2021/04/01 00:50:22;;;;;;;26.11;17.53;;;;;;;11.99;71.00;99568.72;343736;115;1962012;-73
2021/04/01 00:51:27;;;;;;;;;;;;;;;12.03;70.83;99572.64;348540;115;1960967;-73
2021/04/01 00:52:33;;;;;;;28.01;16.82;;;;;;;12.08;70.58;99570.94;344727;115;1961002;-72
2021/04/01 00:53:38;;;;;;;25.81;16.58;;;;;;;12.07;70.40;99563.87;334419;117;2946953;-72
2021/04/01 00:54:44;;;;;;;24.98;17.84;;;;;;;12.09;70.37;99569.05;297233;117;2874047;-72
2021/04/01 00:55:50;;;;;;;25.49;17.61;;;;;;;12.08;70.40;99561.98;299587;115;2099989;-72
2021/04/01 00:56:55;;;;;;;24.33;16.88;;;;;;;12.08;70.28;99568.23;332300;117;1965021;-72
2021/04/01 00:58:02;;;;;;;22.93;16.43;;;;;;;12.04;70.43;99558.05;334718;115;1962001;-73
2021/04/01 00:59:08;;;;;;;24.27;16.36;;;;;;;12.06;70.42;99561.37;343992;116;1961944;-72
2021/04/01 01:00:18;;;;;;;21.72;15.58;;;;;;;12.09;70.29;99553.66;343937;115;1961990;-73
2021/04/01 01:02:35;;;;;;;22.84;16.47;;;;;;;12.01;70.55;99553.92;344000;115;1961999;-72
2021/04/01 01:03:41;;;;;;;22.98;16.50;;;;;;;12.00;70.61;99552.25;283524;115;2345915;-73
2021/04/01 01:04:46;;;;;;;25.32;16.86;;;;;;;12.04;70.45;99558.90;305294;115;2033949;-72
2021/04/01 01:05:51;;;;;;;26.58;16.62;;;;;;;12.06;70.34;99561.37;315568;115;1964956;-73
2021/04/01 01:06:57;;;;;;;23.92;16.19;;;;;;;12.02;70.45;99563.69;322475;117;1962028;-72
2021/04/01 01:08:04;;;;;;;25.12;17.92;;;;;;;12.02;70.46;99560.98;342338;115;1961966;-72
2021/04/01 01:09:11;;;;;;;24.50;16.83;;;;;;;12.02;70.45;99560.98;342598;115;1961939;-72
2021/04/01 01:10:27;;;;;;;22.63;16.13;;;;;;;11.97;70.64;99555.39;344303;116;1962068;-72
2021/04/01 01:11:33;;;;;;;26.86;18.20;;;;;;;11.96;70.74;99561.02;310632;115;2405956;-72
2021/04/01 01:12:39;;;;;;;24.14;15.83;;;;;;;12.02;70.45;99560.98;342467;117;1962036;-72
2021/04/01 01:13:45;;;;;;;25.19;16.68;;;;;;;11.98;70.59;99556.22;343037;116;1962039;-72
2021/04/01 01:14:50;;;;;;;26.03;17.28;;;;;;;12.01;70.47;99562.05;342151;116;1961991;-72
2021/04/01 01:15:55;;;;;;;24.67;16.85;;;;;;;12.01;70.38;99553.07;340701;117;1961978;-74
2021/04/01 01:17:02;;;;;;;30.12;16.91;;;;;;;11.99;70.35;99553.30;340857;117;1962694;-72
2021/04/01 01:18:08;;;;;;;22.81;16.22;;;;;;;11.97;70.38;99551.86;343827;117;1961981;-73
2021/04/01 01:19:16;;;;;;;24.04;15.94;;;;;;;11.93;70.56;99545.20;297151;117;2874955;-73
2021/04/01 01:20:26;;;;;;;20.27;15.82;;;;;;;11.90;70.58;99551.89;341593;115;1964008;-73
2021/04/01 01:21:33;;;;;;;23.02;15.64;;;;;;;11.91;70.63;99553.56;341075;117;1961893;-73
2021/04/01 01:22:39;;;;;;;23.92;16.10;;;;;;;11.88;70.62;99548.56;342393;116;1961930;-72
2021/04/01 01:23:46;;;;;;;23.07;16.78;;;;;;;11.88;70.65;99545.85;312064;115;1961955;-72
2021/04/01 01:24:51;;;;;;;24.91;17.05;;;;;;;11.82;70.95;99549.41;341769;116;1961958;-72
2021/04/01 01:25:58;;;;;;;23.23;15.93;;;;;;;11.82;70.73;99550.23;341823;115;1962805;-73
2021/04/01 01:27:05;;;;;;;22.01;15.24;;;;;;;11.78;70.97;99545.48;342034;117;1962027;-72
2021/04/01 01:28:11;;;;;;;21.92;16.17;;;;;;;11.84;70.78;99534.61;324493;115;1962890;-72
2021/04/01 01:29:16;;;;;;;24.63;15.64;;;;;;;11.78;70.94;99535.49;325065;117;1963022;-72
2021/04/01 01:30:23;;;;;;;27.60;17.61;;;;;;;11.80;70.86;99544.23;341467;115;1961966;-73
2021/04/01 01:31:28;;;;;;;24.74;16.14;;;;;;;11.76;71.09;99531.34;343062;116;1961969;-73
2021/04/01 01:32:37;;;;;;;22.95;16.12;;;;;;;11.76;70.99;99534.05;341282;115;1963967;-74
2021/04/01 01:33:43;;;;;;;22.76;15.45;;;;;;;11.79;70.82;99537.14;341888;115;1963068;-73
2021/04/01 01:34:50;;;;;;;22.65;15.55;;;;;;;11.80;70.82;99538.81;342302;115;1962019;-73
2021/04/01 01:35:56;;;;;;;22.53;16.01;;;;;;;11.77;70.88;99533.81;343507;117;1961997;-72
2021/04/01 01:37:03;;;;;;;24.53;17.01;;;;;;;11.78;70.80;99534.66;334780;115;2861963;-72
2021/04/01 01:38:10;;;;;;;24.94;16.88;;;;;;;11.76;70.89;99534.05;341777;115;1962024;-73
2021/04/01 01:39:15;;;;;;;24.57;16.22;;;;;;;11.72;70.93;99532.80;342256;117;1962011;-71
2021/04/01 01:40:25;;;;;;;24.18;15.83;;;;;;;11.69;70.98;99534.06;317440;115;2895014;-73
2021/04/01 01:41:31;;;;;;;23.49;16.34;;;;;;;11.68;71.10;99526.19;341412;115;1961986;-73
2021/04/01 01:42:36;;;;;;;23.55;17.41;;;;;;;11.66;71.17;99529.91;340896;115;1962057;-72
2021/04/01 01:43:41;;;;;;;23.14;16.39;;;;;;;11.61;71.30;99529.73;341538;117;1961948;-73
2021/04/01 01:44:46;;;;;;;21.96;16.26;;;;;;;11.62;71.28;99534.12;340766;117;1962019;-73
2021/04/01 01:45:52;;;;;;;23.94;16.19;;;;;;;11.59;71.43;99518.32;343114;115;1961925;-72
2021/04/01 01:46:59;;;;;;;23.01;16.02;;;;;;;11.61;71.46;99532.44;342705;115;1961990;-72
2021/04/01 01:48:06;;;;;;;24.78;16.36;;;;;;;11.62;71.36;99533.30;279509;115;2282979;-72
2021/04/01 01:49:11;;;;;;;22.69;16.16;;;;;;;11.60;71.47;99533.50;342102;117;1961964;-72
2021/04/01 01:50:21;;;;;;;24.00;15.87;;;;;;;11.61;71.44;99535.14;351652;114;1963971;-72
2021/04/01 01:51:30;;;;;;;23.41;17.28;;;;;;;11.62;71.42;99534.12;352310;113;1962975;-72
2021/04/01 01:52:35;;;;;;;22.34;16.10;;;;;;;11.63;71.47;99521.41;298689;116;2120977;-74
2021/04/01 01:53:40;;;;;;;25.10;16.06;;;;;;;11.68;71.43;99528.89;315733;117;1961947;-73
2021/04/01 01:54:46;;;;;;;24.66;15.24;;;;;;;11.71;71.28;99525.75;319713;116;1962991;-72
2021/04/01 01:55:51;;;;;;;25.91;15.63;;;;;;;11.71;71.35;99518.45;342159;117;1961984;-73
2021/04/01 01:56:57;;;;;;;21.40;15.91;;;;;;;11.73;71.14;99513.66;341973;115;1961953;-72
2021/04/01 01:58:02;;;;;;;23.60;16.19;;;;;;;11.78;71.01;99521.13;341722;117;1961970;-73
2021/04/01 01:59:08;;;;;;;23.21;14.68;;;;;;;11.80;70.84;99519.88;342593;115;1961992;-73
2021/04/01 02:00:19;;;;;;;21.92;15.04;;;;;;;11.83;70.65;99516.72;342588;115;1961989;-73
2021/04/01 02:01:26;;;;;;;23.40;15.78;;;;;;;11.87;70.48;99514.44;341427;117;1963042;-74
2021/04/01 02:02:32;;;;;;;24.13;14.88;;;;;;;11.85;70.41;99513.78;316708;118;2447914;-74
2021/04/01 02:03:37;;;;;;;21.66;15.33;;;;;;;11.82;70.61;99515.05;312731;112;2033000;-73
2021/04/01 02:04:42;;;;;;;22.38;14.94;;;;;;;11.83;70.55;99511.31;316775;112;1984997;-73
2021/04/01 02:05:48;;;;;;;23.66;15.72;;;;;;;11.83;70.48;99508.61;334271;113;1967089;-73
2021/04/01 02:06:53;;;;;;;22.56;15.13;;;;;;;11.81;70.51;99507.98;351301;112;1960733;-72
2021/04/01 02:07:59;;;;;;;24.50;16.34;;;;;;;11.80;70.52;99509.05;350415;112;1961976;-72
2021/04/01 02:09:04;;;;;;;22.61;16.12;;;;;;;11.81;70.52;99507.98;352101;112;1962955;-72
2021/04/01 02:10:14;;;;;;;22.34;15.48;;;;;;;11.78;70.62;99505.72;353129;112;1965027;-72
2021/04/01 02:11:19;;;;;;;24.12;16.32;;;;;;;11.79;70.69;99512.78;313536;113;2027929;-71
2021/04/01 02:12:24;;;;;;;23.43;15.28;;;;;;;11.80;70.54;99508.19;347427;113;1964028;-73
2021/04/01 02:13:29;;;;;;;21.92;16.08;;;;;;;11.73;70.76;99508.25;346329;113;1961964;-71
2021/04/01 02:14:34;;;;;;;21.47;14.11;;;;;;;11.74;70.66;99507.19;343706;115;1961992;-72
2021/04/01 02:15:42;;;;;;;23.05;15.18;;;;;;;11.74;70.68;99503.66;345802;115;1961955;-73
2021/04/01 02:16:49;;;;;;;21.79;14.65;;;;;;;11.75;70.73;99506.16;325420;115;2452952;-73
2021/04/01 02:18:15;;;;;;;23.61;16.01;;;;;;;11.80;70.52;99510.90;321007;113;1962918;-72
2021/04/01 02:19:21;;;;;;;21.23;16.29;;;;;;;11.79;70.41;99507.37;352026;113;1961979;-72
2021/04/01 02:20:38;;;;;;;23.41;16.72;;;;;;;11.78;70.45;99502.19;325275;114;1961988;-72
2021/04/01 02:21:40;;;;;;;21.61;14.77;;;;;;;11.77;70.55;99506.75;345435;114;1962021;-72
2021/04/01 02:22:45;;;;;;;21.88;15.57;;;;;;;11.82;70.25;99506.92;293921;116;2127928;-72
2021/04/01 02:23:51;;;;;;;22.21;15.76;;;;;;;11.82;70.25;99500.69;321576;116;1961963;-72
2021/04/01 02:24:56;;;;;;;21.76;15.04;;;;;;;11.87;70.05;99507.14;320939;116;1962031;-72
2021/04/01 02:26:04;;;;;;;20.32;15.71;;;;;;;11.90;69.96;99502.34;326046;116;1961964;-72
2021/04/01 02:27:09;;;;;;;24.61;16.73;;;;;;;11.88;69.92;99502.55;341090;118;1961934;-73
2021/04/01 02:28:17;;;;;;;28.24;16.88;;;;;;;11.88;69.89;99497.98;339973;116;1963982;-72
2021/04/01 02:29:23;;;;;;;23.42;15.49;;;;;;;11.85;69.88;99500.25;340071;117;1964116;-73
2021/04/01 02:30:30;;;;;;;25.59;18.46;;;;;;;11.77;69.97;99506.75;339793;116;1961970;-73
2021/04/01 02:31:36;;;;;;;25.32;18.68;;;;;;;11.70;70.02;99497.05;301759;118;2675947;-72
2021/04/01 02:32:41;;;;;;;24.61;16.65;;;;;;;11.63;70.07;99494.36;298941;118;2088013;-72
2021/04/01 02:33:48;;;;;;;22.93;15.17;;;;;;;11.50;70.32;99497.96;322121;116;1962035;-72
2021/04/01 02:34:53;;;;;;;23.19;16.11;;;;;;;11.45;70.60;99509.42;340511;116;1962053;-72
2021/04/01 02:35:59;;;;;;;24.05;15.77;;;;;;;11.41;70.96;99497.39;341266;116;1962016;-72
2021/04/01 02:37:06;;;;;;;21.61;16.01;;;;;;;11.43;71.03;99497.16;340915;116;1964023;-72
2021/04/01 02:38:11;;;;;;;22.00;14.89;;;;;;;11.44;71.15;99493.42;340952;116;1961999;-72
2021/04/01 02:39:16;;;;;;;19.94;13.92;;;;;;;11.52;70.91;99497.76;346175;114;1962066;-72
2021/04/01 02:40:24;;;;;;;22.89;15.18;;;;;;;11.56;70.85;99498.97;338579;117;1962043;-72
2021/04/01 02:41:29;;;;;;;23.34;15.41;;;;;;;11.60;70.70;99497.50;344461;114;1961994;-72
2021/04/01 02:42:34;;;;;;;25.32;15.38;;;;;;;11.61;70.68;99494.56;342572;116;1961916;-72
2021/04/01 02:43:40;;;;;;;23.41;14.52;;;;;;;11.62;70.69;99498.95;348451;115;1963950;-73
2021/04/01 02:44:45;;;;;;;21.06;15.35;;;;;;;11.68;70.52;99493.72;339057;116;1961964;-72
2021/04/01 02:45:50;;;;;;;23.83;15.81;;;;;;;11.69;70.37;99500.77;339427;116;1963847;-73
2021/04/01 02:46:56;;;;;;;23.65;15.48;;;;;;;11.72;70.36;99497.63;343862;116;1961998;-72
2021/04/01 02:48:02;;;;;;;24.77;15.54;;;;;;;11.72;70.19;99494.92;340352;117;1963976;-72
2021/04/01 02:49:08;;;;;;;22.92;14.37;;;;;;;11.70;70.23;99495.16;340388;118;1961926;-72
2021/04/01 02:50:15;;;;;;;21.84;14.97;;;;;;;11.67;70.35;99498.30;341456;116;1961946;-73
2021/04/01 02:51:20;;;;;;;23.74;15.58;;;;;;;11.65;70.44;99495.80;337357;118;1962026;-72
2021/04/01 02:52:26;;;;;;;24.77;16.76;;;;;;;11.65;70.40;99492.27;337998;118;1961917;-72
2021/04/01 02:53:31;;;;;;;23.19;14.62;;;;;;;11.72;70.37;99494.92;342816;116;1961928;-72
2021/04/01 02:54:36;;;;;;;25.76;15.87;;;;;;;11.78;70.11;99504.90;336834;118;1961958;-73
2021/04/01 02:55:42;;;;;;;26.23;16.73;;;;;;;11.78;69.92;99504.90;350779;113;1960737;-73
2021/04/01 02:56:47;;;;;;;25.32;17.56;;;;;;;11.78;69.82;99494.90;350058;115;1961945;-71
2021/04/01 02:57:52;;;;;;;26.72;17.57;;;;;;;11.77;69.87;99492.39;352238;113;1965315;-71
2021/04/01 02:58:58;;;;;;;24.36;18.63;;;;;;;11.78;69.75;99494.90;352096;113;1961938;-73
2021/04/01 03:00:12;;;;;;;27.01;18.93;;;;;;;11.71;69.69;99488.69;352175;113;1962030;-72
2021/04/01 03:01:17;;;;;;;27.82;19.12;;;;;;;11.62;69.65;99490.01;351386;113;1961874;-72
2021/04/01 03:02:26;;;;;;;28.86;20.21;;;;;;;11.51;69.75;99483.41;351919;113;1962090;-72
2021/04/01 03:03:33;;;;;;;29.46;19.61;;;;;;;11.36;70.10;99485.56;346336;114;1962938;-72
2021/04/01 03:04:39;;;;;;;30.06;19.88;;;;;;;11.18;70.69;99480.85;344180;116;1961927;-72
2021/04/01 03:05:45;;;;;;;29.10;18.08;;;;;;;11.04;70.97;99496.30;313809;116;2573977;-73
2021/04/01 03:06:50;;;;;;;30.31;18.75;;;;;;;10.99;71.40;99483.41;339750;116;1961990;-73
2021/04/01 03:07:56;;;;;;;24.29;17.01;;;;;;;10.92;71.80;99479.89;345781;116;1961965;-72
2021/04/01 03:09:02;;;;;;;27.38;17.59;;;;;;;10.90;71.96;99478.45;346909;116;1962010;-71
2021/04/01 03:10:11;;;;;;;26.39;18.20;;;;;;;10.89;72.15;99487.61;346496;114;1964997;-71
2021/04/01 03:11:16;;;;;;;26.97;17.46;;;;;;;10.88;72.23;99478.67;345348;116;1962023;-72
2021/04/01 03:12:22;;;;;;;28.19;18.62;;;;;;;10.90;72.37;99482.00;342547;116;1961941;-73
2021/04/01 03:13:27;;;;;;;23.49;15.87;;;;;;;10.91;72.28;99475.55;340487;118;1965034;-73
2021/04/01 03:14:32;;;;;;;24.98;17.21;;;;;;;10.96;72.42;99477.61;340520;116;1962011;-72
2021/04/01 03:15:38;;;;;;;28.33;19.22;;;;;;;10.83;72.24;99459.56;340370;118;1961928;-73
2021/04/01 03:16:45;;;;;;;25.35;16.53;;;;;;;10.96;72.29;99478.44;340435;118;1961955;-72
2021/04/01 03:17:50;;;;;;;24.34;15.65;;;;;;;10.96;72.21;99472.21;341149;118;1961941;-72
2021/04/01 03:18:56;;;;;;;28.31;16.91;;;;;;;11.00;72.28;99476.95;333373;118;2929982;-73
2021/04/01 03:20:04;;;;;;;25.07;16.58;;;;;;;11.04;72.07;99479.25;307430;119;2442910;-73
2021/04/01 03:21:09;;;;;;;26.12;17.18;;;;;;;10.99;72.19;99472.60;342043;117;1963042;-72
2021/04/01 03:22:14;;;;;;;25.95;17.07;;;;;;;11.01;72.13;99472.41;343194;117;1962065;-73
2021/04/01 03:23:20;;;;;;;26.02;18.48;;;;;;;11.00;72.19;99468.02;345196;117;1961963;-73
2021/04/01 03:24:26;;;;;;;27.57;17.39;;;;;;;10.98;72.17;99473.66;341568;115;1962977;-72
2021/04/01 03:25:33;;;;;;;27.50;17.39;;;;;;;10.95;72.24;99476.76;307938;117;2628929;-72
2021/04/01 03:26:41;;;;;;;25.44;17.47;;;;;;;10.96;72.26;99473.03;342048;116;1961967;-73
2021/04/01 03:27:46;;;;;;;26.29;17.07;;;;;;;10.97;72.17;99465.75;343214;117;1963013;-72
2021/04/01 03:28:52;;;;;;;26.66;18.30;;;;;;;10.99;72.11;99475.30;341904;117;1962065;-72
2021/04/01 03:30:09;;;;;;;26.71;17.89;;;;;;;10.96;72.05;99473.03;295908;117;2885989;-72
2021/04/01 03:31:12;;;;;;;25.79;18.74;;;;;;;10.94;72.18;99469.70;342784;117;1962982;-72
2021/04/01 03:32:18;;;;;;;27.39;17.17;;;;;;;10.92;72.10;99469.08;343413;117;1962957;-72
2021/04/01 03:33:23;;;;;;;28.08;19.09;;;;;;;10.95;72.10;99470.53;342476;117;1961951;-71
2021/04/01 03:34:28;;;;;;;27.25;16.89;;;;;;;10.95;72.03;99474.06;345087;115;1962056;-72
2021/04/01 03:35:33;;;;;;;23.80;17.39;;;;;;;10.96;72.03;99469.51;336348;116;2934031;-72
2021/04/01 03:36:44;;;;;;;27.11;17.72;;;;;;;10.94;72.03;99474.29;343121;116;1962962;-72
2021/04/01 03:37:50;;;;;;;28.29;18.53;;;;;;;10.95;72.09;99465.95;343772;116;1962036;-71
2021/04/01 03:38:55;;;;;;;29.04;19.12;;;;;;;10.94;72.13;99467.00;315959;115;2454996;-72
2021/04/01 03:40:01;;;;;;;27.73;19.05;;;;;;;10.99;71.97;99466.38;337532;115;1962012;-72
2021/04/01 03:41:06;;;;;;;26.44;18.53;;;;;;;10.99;71.88;99475.30;338276;115;1962028;-72
2021/04/01 03:42:11;;;;;;;25.71;19.19;;;;;;;10.98;71.88;99473.66;339102;115;1963995;-73
2021/04/01 03:43:16;;;;;;;26.22;18.01;;;;;;;10.97;71.86;99465.75;343852;115;1962019;-73
2021/04/01 03:44:21;;;;;;;26.72;18.10;;;;;;;10.94;71.97;99469.70;342724;116;1964190;-73
2021/04/01 03:45:27;;;;;;;27.33;18.72;;;;;;;10.98;71.83;99465.55;344337;115;1962026;-73
2021/04/01 03:46:37;;;;;;;27.60;18.44;;;;;;;10.92;72.05;99463.67;344284;117;1963989;-72
2021/04/01 03:47:43;;;;;;;27.96;18.53;;;;;;;10.92;72.10;99468.26;343581;117;1963964;-72
2021/04/01 03:48:50;;;;;;;24.55;17.90;;;;;;;10.94;72.06;99466.18;342624;115;1962962;-72
2021/04/01 03:49:55;;;;;;;27.11;18.67;;;;;;;10.94;72.05;99463.48;342220;117;1961939;-73
2021/04/01 03:51:02;;;;;;;28.99;19.04;;;;;;;10.99;71.87;99466.38;333778;117;2877935;-72
2021/04/01 03:52:08;;;;;;;27.03;19.31;;;;;;;10.99;71.73;99464.50;330618;117;1961940;-72
2021/04/01 03:53:13;;;;;;;26.78;19.04;;;;;;;10.97;71.76;99466.57;342237;117;1962012;-72
2021/04/01 03:54:18;;;;;;;30.30;20.21;;;;;;;10.92;71.96;99458.27;342319;115;1961992;-72
2021/04/01 03:56:30;;;;;;;29.80;19.38;;;;;;;10.90;72.13;99468.48;342089;117;1962025;-75
2021/04/01 03:57:37;;;;;;;27.49;17.97;;;;;;;10.96;71.91;99458.70;342295;117;1962059;-72
2021/04/01 03:59:08;;;;;;;28.18;20.25;;;;;;;10.95;71.87;99459.72;292024;117;2144003;-74
2021/04/01 04:00:13;;;;;;;27.13;19.30;;;;;;;10.95;71.86;99460.55;334987;116;1961981;-72
2021/04/01 04:01:55;;;;;;;28.07;19.77;;;;;;;10.97;71.63;99452.23;343106;115;1964979;-72
2021/04/01 04:03:56;;;;;;;28.74;18.73;;;;;;;10.99;71.67;99455.56;341983;115;1962005;-73
2021/04/01 04:06:11;;;;;;;27.23;18.91;;;;;;;11.02;71.54;99457.01;344569;117;1962004;-73
2021/04/01 04:10:59;;;;;;;27.06;18.54;;;;;;;11.06;71.33;99455.52;340890;117;1961951;-73
2021/04/01 04:12:11;;;;;;;28.54;19.02;;;;;;;11.08;71.22;99450.73;339488;117;1961994;-73
2021/04/01 04:13:14;;;;;;;28.91;19.21;;;;;;;11.14;70.93;99450.72;310134;115;2552010;-73
2021/04/01 04:14:24;;;;;;;27.59;18.69;;;;;;;11.13;70.92;99449.05;338969;118;1962008;-73
2021/04/01 04:15:23;;;;;;;28.33;18.78;;;;;;;11.11;71.19;99448.42;337316;120;1962012;-72
2021/04/01 04:16:30;;;;;;;24.93;16.44;;;;;;;11.16;70.89;99445.91;335875;121;1962961;-72
2021/04/01 04:17:36;;;;;;;28.11;19.11;;;;;;;11.21;70.70;99445.27;306250;119;2584993;-74
2021/04/01 04:18:42;;;;;;;28.63;20.10;;;;;;;11.27;70.58;99448.98;331931;120;1964010;-73
2021/04/01 04:19:47;;;;;;;28.39;18.41;;;;;;;11.28;70.48;99445.25;333833;118;1962968;-73
2021/04/01 04:20:52;;;;;;;29.08;21.02;;;;;;;11.28;70.51;99445.25;339183;117;1963017;-73
2021/04/01 04:21:58;;;;;;;28.44;18.49;;;;;;;11.28;70.41;99439.84;337355;119;1962089;-72
2021/04/01 04:23:05;;;;;;;27.45;19.65;;;;;;;11.29;70.44;99447.72;336601;119;1962013;-71
2021/04/01 04:24:12;;;;;;;28.84;19.52;;;;;;;11.33;70.36;99448.14;336281;121;1962993;-73
2021/04/01 04:25:20;;;;;;;27.68;19.02;;;;;;;11.36;70.29;99447.70;341063;117;1962953;-72
2021/04/01 04:26:27;;;;;;;26.87;17.82;;;;;;;11.40;70.05;99440.80;337020;117;2889001;-72
2021/04/01 04:27:59;;;;;;;28.93;18.90;;;;;;;11.41;70.05;99447.88;310456;117;2002978;-73
2021/04/01 04:28:52;;;;;;;27.25;17.42;;;;;;;11.43;69.96;99441.21;336258;117;2928091;-73
2021/04/01 04:30:00;;;;;;;28.92;20.20;;;;;;;11.44;69.87;99442.03;301207;117;2736008;-74
2021/04/01 04:31:07;;;;;;;29.82;21.02;;;;;;;11.43;69.83;99440.36;342992;115;1963975;-73
2021/04/01 04:32:12;;;;;;;33.02;22.42;;;;;;;11.43;69.78;99443.92;307518;118;2241066;-72
2021/04/01 04:33:18;;;;;;;33.04;22.52;;;;;;;11.40;69.66;99433.50;307372;119;1962999;-73
2021/04/01 04:34:23;;;;;;;32.76;23.26;;;;;;;11.36;69.61;99445.00;323974;119;1961972;-73
2021/04/01 04:35:28;;;;;;;34.33;23.32;;;;;;;11.29;69.61;99431.50;331942;120;1963037;-73
2021/04/01 04:36:34;;;;;;;32.80;23.67;;;;;;;11.23;69.82;99432.38;338433;117;1961968;-73
2021/04/01 04:37:40;;;;;;;32.47;22.63;;;;;;;11.16;69.95;99428.86;336994;119;1961954;-73
2021/04/01 04:38:45;;;;;;;33.00;22.91;;;;;;;11.12;69.95;99425.77;346613;117;1962010;-73
2021/04/01 04:39:51;;;;;;;33.13;23.71;;;;;;;11.06;70.71;99429.34;343666;117;1961942;-73
2021/04/01 04:40:58;;;;;;;29.75;20.06;;;;;;;11.00;70.53;99433.70;296541;117;2869973;-73
2021/04/01 04:42:04;;;;;;;31.40;20.91;;;;;;;10.93;71.18;99432.92;340642;118;1961978;-73
2021/04/01 04:43:09;;;;;;;30.39;20.14;;;;;;;10.92;71.00;99430.42;335991;120;1961922;-73
2021/04/01 04:45:19;;;;;;;33.04;20.73;;;;;;;11.09;71.47;99426.20;402021;104;1986951;-72
2021/04/01 04:46:24;;;;;;;26.74;16.92;;;;;;;11.05;71.22;99424.96;378743;105;1962052;-73
2021/04/01 04:47:29;;;;;;;25.88;18.05;;;;;;;11.16;70.90;99431.56;372607;107;1962025;-74
2021/04/01 04:48:35;;;;;;;26.90;19.77;;;;;;;11.19;70.83;99425.72;376321;105;1962923;-73
2021/04/01 04:49:40;;;;;;;29.13;19.48;;;;;;;11.19;70.90;99423.88;381527;105;1961970;-73
2021/04/01 04:50:49;;;;;;;29.29;19.44;;;;;;;11.22;71.01;99425.31;308794;107;2261779;-73
2021/04/01 04:51:54;;;;;;;29.15;19.07;;;;;;;11.31;70.74;99429.41;379952;105;1962042;-72
2021/04/01 04:52:59;;;;;;;27.29;18.54;;;;;;;11.39;70.58;99429.16;378724;105;1961965;-73
2021/04/01 04:54:05;;;;;;;28.21;18.14;;;;;;;11.44;70.45;99421.22;379048;105;1962030;-73
2021/04/01 04:55:12;;;;;;;26.61;18.93;;;;;;;11.55;70.12;99421.58;378951;105;1961945;-73
2021/04/01 04:56:22;;;;;;;32.57;18.80;;;;;;;11.61;69.98;99426.92;313080;107;2230049;-73
2021/04/01 04:57:34;;;;;;;29.09;19.29;;;;;;;11.68;69.63;99407.95;381607;105;1962001;-73
2021/04/01 04:58:53;;;;;;;32.21;21.66;;;;;;;11.75;69.43;99414.16;354973;105;2336028;-73
2021/04/01 05:01:04;;;;;;;30.31;20.46;;;;;;;11.76;68.97;99414.98;350556;105;2422079;-73
2021/04/01 05:04:59;;;;;;;34.22;23.78;;;;;;;11.57;69.17;99414.91;378653;105;1962014;-73
2021/04/01 05:06:04;;;;;;;36.32;23.94;;;;;;;11.50;69.32;99416.81;373600;105;1965903;-72
2021/04/01 05:07:09;;;;;;;37.84;24.42;;;;;;;11.45;69.57;99417.45;378671;105;1961931;-73
2021/04/01 05:08:16;;;;;;;35.17;24.88;;;;;;;11.42;69.66;99417.08;378691;105;1961881;-74
2021/04/01 05:09:22;;;;;;;36.10;25.81;;;;;;;11.34;70.25;99411.92;378800;105;1961986;-72
2021/04/01 05:10:28;;;;;;;37.39;26.02;;;;;;;11.30;70.29;99421.50;314802;105;2203981;-73
2021/04/01 05:11:33;;;;;;;33.27;21.42;;;;;;;11.24;70.56;99423.20;357279;105;1961915;-72
2021/04/01 05:12:39;;;;;;;32.86;22.04;;;;;;;11.23;70.59;99419.67;382735;105;1963073;-72